createdAt,value
2023-01-15T00:00:10.612Z,5.64
2023-01-15T00:02:41.145Z,5.34
2023-01-15T00:05:10.350Z,5.33
2023-01-15T00:07:38.778Z,5.81
2023-01-15T00:10:08.815Z,6.03
2023-01-15T00:12:37.679Z,5.78
2023-01-15T00:15:07.674Z,4.90
2023-01-15T00:17:36.625Z,6.29
2023-01-15T00:20:07.757Z,5.56
2023-01-15T00:22:36.218Z,4.91
2023-01-15T00:25:22.840Z,5.64
2023-01-15T00:27:51.925Z,5.10
2023-01-15T00:30:20.756Z,5.85
2023-01-15T00:32:50.625Z,5.59
2023-01-15T00:35:24.314Z,4.20
2023-01-15T00:37:53.065Z,4.76
2023-01-15T00:40:22.463Z,5.70
2023-01-15T00:42:54.693Z,5.07
2023-01-15T00:45:24.154Z,4.71
2023-01-15T00:47:53.220Z,5.41
2023-01-15T00:50:24.369Z,5.66
2023-01-15T00:52:52.863Z,5.44
2023-01-15T00:55:22.741Z,5.58
2023-01-15T00:57:51.697Z,6.04
2023-01-15T01:00:21.112Z,5.03
2023-01-15T01:02:53.395Z,5.56
2023-01-15T01:05:23.673Z,4.76
2023-01-15T01:07:52.387Z,4.20
2023-01-15T01:10:21.493Z,5.73
2023-01-15T01:12:52.029Z,4.78
2023-01-15T01:15:21.434Z,5.96
2023-01-15T01:17:51.756Z,4.37
2023-01-15T01:20:20.504Z,4.96
2023-01-15T01:22:51.700Z,5.09
2023-01-15T01:25:21.147Z,4.10
2023-01-15T01:27:51.083Z,5.45
2023-01-15T01:30:20.371Z,5.58
2023-01-15T01:32:49.455Z,4.42
2023-01-15T01:35:18.499Z,3.99
2023-01-15T01:37:52.266Z,3.81
2023-01-15T01:40:21.384Z,4.38
2023-01-15T01:42:50.864Z,5.33
2023-01-15T01:45:25.908Z,4.40
2023-01-15T01:47:56.709Z,4.63
2023-01-15T01:50:25.739Z,4.89
2023-01-15T01:53:03.520Z,4.26
2023-01-15T01:55:32.623Z,3.82
2023-01-15T01:58:04.192Z,3.63
2023-01-15T02:00:34.871Z,3.88
2023-01-15T02:03:04.258Z,3.94
2023-01-15T02:05:34.820Z,3.96
2023-01-15T02:08:06.106Z,4.68
2023-01-15T02:10:35.766Z,3.38
2023-01-15T02:13:10.633Z,3.93
2023-01-15T02:15:43.084Z,3.52
2023-01-15T02:18:17.934Z,4.42
2023-01-15T02:20:50.355Z,3.55
2023-01-15T02:23:33.681Z,3.89
2023-01-15T02:26:39.733Z,4.32
2023-01-15T02:29:14.366Z,4.57
2023-01-15T02:31:44.702Z,3.99
2023-01-15T02:34:18.250Z,4.77
2023-01-15T02:36:50.368Z,3.63
2023-01-15T02:39:28.430Z,4.82
2023-01-15T02:42:02.133Z,3.79
2023-01-15T02:44:39.738Z,4.69
2023-01-15T02:47:09.289Z,4.14
2023-01-15T02:49:38.301Z,5.00
2023-01-15T02:52:11.979Z,4.26
2023-01-15T02:54:44.774Z,4.19
2023-01-15T02:57:18.601Z,3.81
2023-01-15T02:59:58.170Z,3.85
2023-01-15T03:02:30.419Z,3.29
2023-01-15T03:05:02.661Z,4.57
2023-01-15T03:07:38.560Z,3.36
2023-01-15T03:10:08.523Z,4.00
2023-01-15T03:13:02.358Z,4.45
2023-01-15T03:16:10.504Z,3.16
2023-01-15T03:18:46.258Z,3.89
2023-01-15T03:21:21.221Z,4.28
2023-01-15T03:23:53.243Z,4.40
2023-01-15T03:26:24.659Z,4.32
2023-01-15T03:28:55.189Z,3.95
2023-01-15T03:31:26.650Z,5.12
2023-01-15T03:33:56.086Z,4.82
2023-01-15T03:36:26.173Z,4.94
2023-01-15T03:39:00.534Z,5.12
2023-01-15T03:41:56.118Z,4.07
2023-01-15T03:44:30.225Z,4.38
2023-01-15T03:47:07.199Z,4.19
2023-01-15T03:49:46.874Z,4.67
2023-01-15T03:52:28.579Z,5.17
2023-01-15T03:55:05.043Z,4.85
2023-01-15T03:57:39.252Z,4.58
2023-01-15T04:00:11.134Z,4.43
2023-01-15T04:02:46.659Z,3.85
2023-01-15T04:05:17.954Z,4.54
2023-01-15T04:07:50.107Z,3.77
2023-01-15T04:10:20.262Z,3.97
2023-01-15T04:12:51.045Z,5.08
2023-01-15T04:15:21.035Z,3.61
2023-01-15T04:17:52.179Z,4.50
2023-01-15T04:20:21.506Z,3.74
2023-01-15T04:22:50.864Z,4.26
2023-01-15T04:25:19.956Z,4.04
2023-01-15T04:27:50.613Z,5.01
2023-01-15T04:30:19.611Z,4.43
2023-01-15T04:32:51.595Z,4.43
2023-01-15T04:35:21.057Z,3.70
2023-01-15T04:37:49.673Z,4.34
2023-01-15T04:40:32.390Z,3.60
2023-01-15T04:43:18.675Z,5.49
2023-01-15T04:45:48.102Z,4.39
2023-01-15T04:48:18.371Z,4.25
2023-01-15T04:50:46.989Z,4.92
2023-01-15T04:53:15.907Z,4.40
2023-01-15T04:55:44.401Z,4.45
2023-01-15T04:58:13.220Z,4.40
2023-01-15T05:00:42.270Z,4.38
2023-01-15T05:03:13.375Z,5.73
2023-01-15T05:05:47.591Z,5.18
2023-01-15T05:08:16.217Z,4.50
2023-01-15T05:10:44.772Z,4.81
2023-01-15T05:13:13.989Z,5.72
2023-01-15T05:15:42.879Z,4.93
2023-01-15T05:18:14.997Z,4.90
2023-01-15T05:20:43.950Z,4.92
2023-01-15T05:23:14.326Z,5.34
2023-01-15T05:25:42.809Z,4.56
2023-01-15T05:28:11.771Z,5.07
2023-01-15T05:30:40.777Z,5.14
2023-01-15T05:33:09.694Z,5.71
2023-01-15T05:35:38.848Z,5.04
2023-01-15T05:38:08.041Z,4.99
2023-01-15T05:40:38.048Z,4.70
2023-01-15T05:43:07.001Z,4.85
2023-01-15T05:45:37.237Z,4.70
2023-01-15T05:48:06.617Z,5.18
2023-01-15T05:50:35.451Z,4.87
2023-01-15T05:53:04.431Z,4.88
2023-01-15T05:55:32.883Z,4.44
2023-01-15T05:58:03.195Z,4.92
2023-01-15T06:00:33.862Z,4.83
2023-01-15T06:03:02.919Z,4.65
2023-01-15T06:05:32.015Z,5.23
2023-01-15T06:08:01.497Z,4.66
2023-01-15T06:10:30.047Z,4.99
2023-01-15T06:12:58.934Z,5.01
2023-01-15T06:15:29.279Z,4.63
2023-01-15T06:17:57.871Z,4.66
2023-01-15T06:20:26.744Z,4.55
2023-01-15T06:22:55.214Z,5.37
2023-01-15T06:25:24.209Z,5.40
2023-01-15T06:27:53.223Z,5.02
2023-01-15T06:30:22.234Z,4.83
2023-01-15T06:32:52.848Z,4.53
2023-01-15T06:35:21.722Z,5.04
2023-01-15T06:37:50.786Z,5.44
2023-01-15T06:40:20.242Z,5.52
2023-01-15T06:43:05.579Z,4.94
2023-01-15T06:45:56.871Z,5.61
2023-01-15T06:48:28.303Z,5.47
2023-01-15T06:50:57.378Z,4.71
2023-01-15T06:53:26.217Z,5.98
2023-01-15T06:55:54.736Z,4.87
2023-01-15T06:58:23.901Z,4.64
2023-01-15T07:00:56.212Z,4.76
2023-01-15T07:03:27.228Z,4.58
2023-01-15T07:05:59.791Z,4.87
2023-01-15T07:08:29.065Z,4.56
2023-01-15T07:10:58.175Z,4.85
2023-01-15T07:13:26.750Z,4.25
2023-01-15T07:15:55.859Z,4.75
2023-01-15T07:18:26.191Z,4.62
2023-01-15T07:20:55.717Z,4.60
2023-01-15T07:23:25.431Z,4.69
2023-01-15T07:25:54.588Z,4.50
2023-01-15T07:28:24.871Z,4.80
2023-01-15T07:30:53.749Z,4.39
2023-01-15T07:33:22.643Z,4.06
2023-01-15T07:35:54.334Z,4.41
2023-01-15T07:38:25.001Z,4.55
2023-01-15T07:41:06.970Z,4.40
2023-01-15T07:43:52.156Z,4.71
2023-01-15T07:46:37.546Z,4.88
2023-01-15T07:49:32.902Z,4.85
2023-01-15T07:52:03.270Z,4.41
2023-01-15T07:54:32.393Z,4.75
2023-01-15T07:57:01.414Z,4.81
2023-01-15T07:59:30.364Z,5.20
2023-01-15T08:01:59.279Z,5.52
2023-01-15T08:04:28.025Z,5.40
2023-01-15T08:06:56.869Z,5.89
2023-01-15T08:09:27.502Z,5.39
2023-01-15T08:12:13.468Z,5.49
2023-01-15T08:14:59.729Z,5.57
2023-01-15T08:17:28.740Z,5.57
2023-01-15T08:19:57.350Z,6.28
2023-01-15T08:22:26.272Z,5.69
2023-01-15T08:24:56.545Z,6.18
2023-01-15T08:27:25.312Z,6.04
2023-01-15T08:29:54.509Z,5.64
2023-01-15T08:32:23.466Z,5.43
2023-01-15T08:34:52.560Z,5.62
2023-01-15T08:37:23.220Z,5.26
2023-01-15T08:39:53.755Z,5.16
2023-01-15T08:42:24.194Z,5.39
2023-01-15T08:44:53.481Z,5.17
2023-01-15T08:47:22.428Z,5.30
2023-01-15T08:49:50.989Z,5.98
2023-01-15T08:52:19.946Z,5.22
2023-01-15T08:54:49.019Z,6.56
2023-01-15T08:57:17.895Z,6.94
2023-01-15T08:59:48.737Z,5.99
2023-01-15T09:02:18.507Z,6.65
2023-01-15T09:04:47.173Z,6.85
2023-01-15T09:07:16.939Z,6.13
2023-01-15T09:09:45.818Z,6.24
2023-01-15T09:12:15.614Z,6.94
2023-01-15T09:14:56.732Z,7.14
2023-01-15T09:17:33.368Z,6.72
2023-01-15T09:20:03.307Z,6.00
2023-01-15T09:22:32.196Z,6.82
2023-01-15T09:25:01.357Z,7.20
2023-01-15T09:27:30.552Z,6.11
2023-01-15T09:29:59.507Z,5.90
2023-01-15T09:32:28.523Z,5.87
2023-01-15T09:34:58.610Z,5.31
2023-01-15T09:37:27.420Z,5.64
2023-01-15T09:39:56.277Z,6.24
2023-01-15T09:42:34.471Z,6.02
2023-01-15T09:45:20.338Z,6.43
2023-01-15T09:47:59.520Z,6.39
2023-01-15T09:50:36.822Z,6.77
2023-01-15T09:53:20.041Z,5.95
2023-01-15T09:55:50.717Z,6.59
2023-01-15T09:58:21.478Z,6.50
2023-01-15T10:00:52.350Z,6.70
2023-01-15T10:03:31.002Z,6.20
2023-01-15T10:06:09.684Z,6.13
2023-01-15T10:08:40.482Z,6.79
2023-01-15T10:11:50.600Z,6.38
2023-01-15T10:14:39.488Z,5.99
2023-01-15T10:17:21.085Z,6.07
2023-01-15T10:19:50.283Z,6.78
2023-01-15T10:22:33.236Z,7.35
2023-01-15T10:25:04.698Z,6.48
2023-01-15T10:27:34.403Z,7.06
2023-01-15T10:30:07.715Z,6.52
2023-01-15T10:33:00.967Z,6.15
2023-01-15T10:35:38.882Z,6.38
2023-01-15T10:38:17.971Z,6.36
2023-01-15T10:41:08.003Z,5.68
2023-01-15T10:43:47.845Z,6.57
2023-01-15T10:46:18.781Z,6.55
2023-01-15T10:48:49.158Z,6.21
2023-01-15T10:51:20.499Z,6.22
2023-01-15T10:53:53.392Z,5.91
2023-01-15T10:56:30.764Z,5.72
2023-01-15T10:59:08.727Z,6.20
2023-01-15T11:01:40.110Z,6.18
2023-01-15T11:04:13.466Z,6.22
2023-01-15T11:06:43.195Z,6.26
2023-01-15T11:09:21.321Z,6.73
2023-01-15T11:12:09.223Z,6.87
2023-01-15T11:14:57.121Z,6.27
2023-01-15T11:17:44.747Z,6.80
2023-01-15T11:20:24.254Z,6.30
2023-01-15T11:22:53.482Z,6.04
2023-01-15T11:25:34.448Z,6.98
2023-01-15T11:28:08.362Z,6.88
2023-01-15T11:30:39.228Z,7.06
2023-01-15T11:33:23.714Z,7.06
2023-01-15T11:35:58.358Z,6.35
2023-01-15T11:38:30.463Z,6.79
2023-01-15T11:41:05.578Z,6.46
2023-01-15T11:43:52.108Z,6.31
2023-01-15T11:46:46.801Z,6.38
2023-01-15T11:49:42.534Z,6.43
2023-01-15T11:52:14.799Z,6.75
2023-01-15T11:54:46.525Z,7.34
2023-01-15T11:57:28.342Z,6.80
2023-01-15T11:59:58.047Z,6.51
2023-01-15T12:02:37.186Z,7.19
2023-01-15T12:05:07.150Z,7.08
2023-01-15T12:07:35.969Z,6.97
2023-01-15T12:10:15.105Z,6.96
2023-01-15T12:12:53.738Z,6.72
2023-01-15T12:15:33.116Z,6.68
2023-01-15T12:18:17.680Z,6.95
2023-01-15T12:20:58.082Z,7.25
2023-01-15T12:23:44.519Z,6.82
2023-01-15T12:26:19.629Z,7.20
2023-01-15T12:28:56.229Z,6.90
2023-01-15T12:31:28.276Z,7.09
2023-01-15T12:33:59.791Z,7.55
2023-01-15T12:36:32.608Z,6.76
2023-01-15T12:39:03.607Z,6.65
2023-01-15T12:41:48.368Z,6.88
2023-01-15T12:44:41.073Z,7.09
2023-01-15T12:47:28.884Z,7.30
2023-01-15T12:50:01.575Z,7.07
2023-01-15T12:52:35.076Z,6.94
2023-01-15T12:55:10.894Z,6.59
2023-01-15T12:57:43.556Z,6.82
2023-01-15T13:00:19.134Z,6.75
2023-01-15T13:02:59.803Z,7.23
2023-01-15T13:05:34.012Z,7.13
2023-01-15T13:08:08.300Z,7.08
2023-01-15T13:10:37.263Z,7.66
2023-01-15T13:13:16.601Z,7.83
2023-01-15T13:15:58.385Z,7.22
2023-01-15T13:18:34.971Z,7.56
2023-01-15T13:21:08.075Z,7.53
2023-01-15T13:23:46.124Z,7.43
2023-01-15T13:26:23.691Z,7.87
2023-01-15T13:29:07.776Z,8.32
2023-01-15T13:31:56.043Z,8.08
2023-01-15T13:34:31.445Z,8.02
2023-01-15T13:37:05.280Z,7.47
2023-01-15T13:39:40.577Z,7.41
2023-01-15T13:42:33.633Z,7.69
2023-01-15T13:45:06.827Z,7.77
2023-01-15T13:47:39.471Z,7.83
2023-01-15T13:50:15.699Z,7.92
2023-01-15T13:52:44.727Z,8.09
2023-01-15T13:55:25.115Z,7.20
2023-01-15T13:57:53.871Z,7.42
2023-01-15T14:00:32.192Z,8.19
2023-01-15T14:03:04.403Z,8.47
2023-01-15T14:05:36.128Z,7.52
2023-01-15T14:08:17.363Z,7.80
2023-01-15T14:10:48.518Z,7.68
2023-01-15T14:13:46.767Z,7.94
2023-01-15T14:16:24.791Z,7.94
2023-01-15T14:19:23.292Z,7.58
2023-01-15T14:21:58.274Z,7.91
2023-01-15T14:25:02.907Z,8.25
2023-01-15T14:37:32.463Z,8.57
2023-01-15T14:40:03.227Z,8.53
2023-01-15T14:42:51.764Z,8.01
2023-01-15T14:45:26.487Z,8.09
2023-01-15T14:47:57.138Z,8.19
2023-01-15T14:50:33.871Z,7.66
2023-01-15T14:53:08.531Z,8.34
2023-01-15T14:55:48.671Z,7.74
2023-01-15T14:58:31.791Z,8.01
2023-01-15T15:01:04.112Z,7.86
2023-01-15T15:03:36.389Z,7.89
2023-01-15T15:06:07.126Z,8.71
2023-01-15T15:08:38.031Z,8.79
2023-01-15T15:11:29.302Z,8.13
2023-01-15T15:13:58.670Z,8.64
2023-01-15T15:16:28.761Z,7.78
2023-01-15T15:19:01.849Z,8.10
2023-01-15T15:21:33.599Z,7.68
2023-01-15T15:24:09.191Z,7.90
2023-01-15T15:26:39.922Z,8.45
2023-01-15T15:29:14.512Z,8.30
2023-01-15T15:31:48.170Z,8.11
2023-01-15T15:34:24.793Z,8.65
2023-01-15T15:36:54.229Z,8.29
2023-01-15T15:39:30.447Z,7.72
2023-01-15T15:42:18.121Z,7.83
2023-01-15T15:45:09.290Z,8.03
2023-01-15T15:47:57.997Z,8.24
2023-01-15T15:50:29.320Z,8.11
2023-01-15T15:52:58.522Z,8.20
2023-01-15T15:55:36.806Z,8.30
2023-01-15T15:58:06.383Z,8.05
2023-01-15T16:00:36.668Z,7.76
2023-01-15T16:03:09.234Z,8.05
2023-01-15T16:05:38.762Z,8.49
2023-01-15T16:08:19.010Z,8.49
2023-01-15T16:10:52.108Z,8.07
2023-01-15T16:13:25.558Z,8.09
2023-01-15T16:15:56.340Z,7.92
2023-01-15T16:18:27.624Z,8.22
2023-01-15T16:20:57.934Z,7.73
2023-01-15T16:23:27.509Z,7.69
2023-01-15T16:26:03.808Z,8.16
2023-01-15T16:28:38.697Z,8.08
2023-01-15T16:31:08.845Z,8.24
2023-01-15T16:33:39.839Z,7.87
2023-01-15T16:36:09.939Z,8.16
2023-01-15T16:38:42.460Z,8.26
2023-01-15T16:41:21.379Z,8.17
2023-01-15T16:43:53.701Z,7.86
2023-01-15T16:46:23.685Z,7.72
2023-01-15T16:49:28.024Z,8.25
2023-01-15T16:51:58.767Z,7.75
2023-01-15T16:54:45.243Z,7.76
2023-01-15T16:57:33.753Z,7.93
2023-01-15T17:00:07.432Z,7.44
2023-01-15T17:02:44.133Z,7.81
2023-01-15T17:05:22.344Z,7.72
2023-01-15T17:07:54.019Z,7.75
2023-01-15T17:10:25.369Z,7.10
2023-01-15T17:12:56.332Z,8.24
2023-01-15T17:15:38.282Z,7.25
2023-01-15T17:18:27.484Z,7.12
2023-01-15T17:20:58.705Z,7.10
2023-01-15T17:23:30.611Z,7.45
2023-01-15T17:25:59.546Z,7.56
2023-01-15T17:28:28.779Z,7.77
2023-01-15T17:31:02.661Z,7.87
2023-01-15T17:33:31.835Z,7.96
2023-01-15T17:36:02.375Z,7.82
2023-01-15T17:38:31.549Z,7.70
2023-01-15T17:41:01.955Z,8.28
2023-01-15T17:43:30.823Z,8.43
2023-01-15T17:46:01.301Z,8.41
2023-01-15T17:48:30.673Z,7.93
2023-01-15T17:51:02.997Z,8.42
2023-01-15T17:53:32.575Z,7.84
2023-01-15T17:56:18.819Z,7.53
2023-01-15T17:59:04.852Z,7.64
2023-01-15T18:01:55.200Z,7.70
2023-01-15T18:04:42.321Z,7.99
2023-01-15T18:07:13.751Z,7.92
2023-01-15T18:09:43.415Z,7.44
2023-01-15T18:12:12.700Z,7.78
2023-01-15T18:14:41.935Z,7.98
2023-01-15T18:17:11.632Z,8.17
2023-01-15T18:19:40.540Z,8.26
2023-01-15T18:22:10.619Z,8.19
2023-01-15T18:24:41.178Z,8.21
2023-01-15T18:27:10.310Z,8.22
2023-01-15T18:29:40.502Z,7.69
2023-01-15T18:32:09.865Z,8.08
2023-01-15T18:34:38.851Z,7.70
2023-01-15T18:37:08.160Z,8.08
2023-01-15T18:39:37.397Z,7.75
2023-01-15T18:42:25.536Z,7.79
2023-01-15T18:45:12.191Z,7.89
2023-01-15T18:47:42.372Z,7.82
2023-01-15T18:50:12.422Z,7.66
2023-01-15T18:52:53.056Z,7.64
2023-01-15T18:55:23.293Z,8.01
2023-01-15T18:57:54.118Z,7.57
2023-01-15T19:00:25.018Z,7.31
2023-01-15T19:02:56.625Z,7.79
2023-01-15T19:05:26.057Z,7.92
2023-01-15T19:07:54.809Z,7.82
2023-01-15T19:10:24.031Z,7.70
2023-01-15T19:12:54.553Z,7.92
2023-01-15T19:15:41.157Z,7.67
2023-01-15T19:18:29.632Z,7.64
2023-01-15T19:20:58.787Z,7.64
2023-01-15T19:23:27.881Z,7.49
2023-01-15T19:25:56.604Z,7.74
2023-01-15T19:28:27.307Z,7.37
2023-01-15T19:31:10.111Z,7.39
2023-01-15T19:33:39.276Z,7.31
2023-01-15T19:36:08.867Z,7.39
2023-01-15T19:38:39.364Z,7.31
2023-01-15T19:41:29.740Z,7.20
2023-01-15T19:44:17.514Z,7.20
2023-01-15T19:47:04.119Z,7.09
2023-01-15T19:49:54.322Z,7.09
2023-01-15T19:52:35.869Z,7.17
2023-01-15T19:55:07.719Z,7.20
2023-01-15T19:57:36.863Z,6.76
2023-01-15T20:00:09.300Z,6.95
2023-01-15T20:02:38.503Z,7.38
2023-01-15T20:05:09.124Z,6.92
2023-01-15T20:07:38.004Z,6.98
2023-01-15T20:10:09.282Z,6.83
2023-01-15T20:13:07.342Z,6.95
2023-01-15T20:15:39.111Z,6.55
2023-01-15T20:18:08.430Z,6.75
2023-01-15T20:20:38.732Z,6.81
2023-01-15T20:23:07.623Z,7.16
2023-01-15T20:25:37.112Z,6.72
2023-01-15T20:28:06.361Z,6.43
2023-01-15T20:30:35.495Z,6.55
2023-01-15T20:33:05.922Z,6.34
2023-01-15T20:35:35.091Z,6.35
2023-01-15T20:38:04.220Z,6.68
2023-01-15T20:40:32.895Z,6.86
2023-01-15T20:43:19.444Z,6.90
2023-01-15T20:45:48.573Z,6.25
2023-01-15T20:48:36.791Z,6.28
2023-01-15T20:51:12.720Z,6.38
2023-01-15T20:53:42.675Z,6.52
2023-01-15T20:56:16.357Z,7.19
2023-01-15T20:58:45.206Z,6.56
2023-01-15T21:01:14.621Z,6.94
2023-01-15T21:03:45.578Z,7.00
2023-01-15T21:06:14.766Z,6.94
2023-01-15T21:08:44.844Z,6.78
2023-01-15T21:11:14.000Z,6.80
2023-01-15T21:13:45.171Z,6.39
2023-01-15T21:16:15.369Z,6.56
2023-01-15T21:18:46.481Z,6.79
2023-01-15T21:21:17.441Z,6.53
2023-01-15T21:23:47.018Z,6.90
2023-01-15T21:26:16.548Z,6.72
2023-01-15T21:28:45.661Z,6.86
2023-01-15T21:31:15.848Z,6.80
2023-01-15T21:33:46.009Z,7.33
2023-01-15T21:36:16.443Z,7.14
2023-01-15T21:38:45.533Z,6.85
2023-01-15T21:41:15.606Z,7.41
2023-01-15T21:44:01.899Z,7.03
2023-01-15T21:46:31.429Z,7.17
2023-01-15T21:49:01.980Z,6.81
2023-01-15T21:51:32.101Z,6.59
2023-01-15T21:54:01.228Z,6.62
2023-01-15T21:56:30.403Z,7.01
2023-01-15T21:58:59.740Z,7.16
2023-01-15T22:01:28.380Z,7.39
2023-01-15T22:03:57.451Z,7.09
2023-01-15T22:06:28.025Z,7.18
2023-01-15T22:08:57.140Z,7.04
2023-01-15T22:11:43.607Z,7.00
2023-01-15T22:14:13.819Z,7.23
2023-01-15T22:16:43.167Z,6.80
2023-01-15T22:19:15.098Z,6.34
2023-01-15T22:21:45.658Z,7.06
2023-01-15T22:24:14.634Z,7.14
2023-01-15T22:26:44.360Z,7.42
2023-01-15T22:29:13.453Z,6.74
2023-01-15T22:31:42.295Z,6.86
2023-01-15T22:34:11.277Z,6.98
2023-01-15T22:36:40.321Z,7.23
2023-01-15T22:39:10.910Z,6.79
2023-01-15T22:41:57.162Z,6.53
2023-01-15T22:44:26.322Z,7.36
2023-01-15T22:46:55.214Z,7.47
2023-01-15T22:49:24.730Z,6.86
2023-01-15T22:51:54.092Z,6.61
2023-01-15T22:54:25.365Z,7.09
2023-01-15T22:56:54.265Z,6.75
2023-01-15T22:59:24.277Z,7.18
2023-01-15T23:01:53.030Z,6.73
2023-01-15T23:04:23.819Z,6.99
2023-01-15T23:06:53.778Z,6.81
2023-01-15T23:09:25.630Z,6.83
2023-01-15T23:11:54.800Z,7.02
2023-01-15T23:14:23.902Z,7.10
2023-01-15T23:16:52.782Z,7.03
2023-01-15T23:19:22.141Z,7.03
2023-01-15T23:21:51.387Z,7.10
2023-01-15T23:24:20.430Z,6.87
2023-01-15T23:26:51.168Z,6.94
2023-01-15T23:29:20.304Z,6.83
2023-01-15T23:31:49.264Z,5.73
2023-01-15T23:34:18.483Z,4.97
2023-01-15T23:36:47.589Z,5.25
2023-01-15T23:39:16.959Z,5.81
2023-01-15T23:42:03.668Z,5.55
2023-01-15T23:44:51.757Z,5.41
2023-01-15T23:47:20.985Z,4.90
2023-01-15T23:49:49.630Z,4.88
2023-01-15T23:52:19.009Z,5.29
2023-01-15T23:54:48.045Z,5.60
2023-01-15T23:57:17.147Z,5.43
2023-01-15T23:59:47.989Z,5.22
